Austin, Arkansas
Current Conditions -  °F | °C
As of 7:58 AM on Monday 22 Dec 2014 (Local Time) from KLRF Reporting Station
Haze Haze  
Wind Chill: 44°   Ceiling: 200
Heat Index: 48°   Visibility: 4mi
Dew Point: 48°   Wind: 9mph
Humidity: 100%   Direction: 150°SSE
Pressure: 29.74"   Gusts: NA
Location:  35°N, 91.98°W
Report Text: KLRF 221358Z AUTO 15008KT 4SM BR OVC002 09/09 A2974 RMK AO2 SLP074
Loading
Personal Weather Stations






























Interactive Weather Map New forecast layout! Learn more

10-Day Weather Forecast

Advertisements
Track Severe Weather on mobile